createdAt,value
2022-10-17T00:04:16.388Z,15.05
2022-10-17T00:09:18.553Z,14.98
2022-10-17T00:14:20.225Z,15.04
2022-10-17T00:19:21.911Z,15.02
2022-10-17T00:24:24.151Z,14.85
2022-10-17T00:29:25.899Z,14.90
2022-10-17T00:34:29.653Z,14.91
2022-10-17T00:39:31.833Z,14.86
2022-10-17T00:44:33.474Z,14.84
2022-10-17T00:49:36.879Z,14.93
2022-10-17T00:54:44.031Z,14.89
2022-10-17T00:59:51.724Z,14.82
2022-10-17T01:04:56.435Z,14.79
2022-10-17T01:09:58.215Z,14.68
2022-10-17T01:15:11.099Z,14.60
2022-10-17T01:20:31.590Z,14.50
2022-10-17T01:25:52.563Z,14.46
2022-10-17T01:31:11.826Z,14.34
2022-10-17T01:36:26.241Z,14.23
2022-10-17T01:41:40.679Z,14.35
2022-10-17T01:46:50.821Z,14.43
2022-10-17T01:52:27.545Z,14.43
2022-10-17T01:57:35.070Z,14.40
2022-10-17T02:02:37.547Z,14.27
2022-10-17T02:07:41.136Z,14.03
2022-10-17T02:12:51.467Z,13.94
2022-10-17T02:17:59.268Z,13.97
2022-10-17T02:23:16.404Z,13.79
2022-10-17T02:28:30.552Z,13.68
2022-10-17T02:33:41.715Z,13.72
2022-10-17T02:38:45.182Z,13.85
2022-10-17T02:43:50.088Z,13.81
2022-10-17T02:48:55.391Z,13.71
2022-10-17T02:54:06.157Z,13.70
2022-10-17T02:59:16.116Z,13.46
2022-10-17T03:04:18.847Z,13.27
2022-10-17T03:09:20.586Z,13.31
2022-10-17T03:14:22.618Z,13.35
2022-10-17T03:19:24.468Z,13.21
2022-10-17T03:24:27.819Z,13.22
2022-10-17T03:29:29.834Z,13.24
2022-10-17T03:34:31.963Z,13.19
2022-10-17T03:39:33.860Z,13.17
2022-10-17T03:44:35.790Z,13.12
2022-10-17T03:49:37.564Z,12.93
2022-10-17T03:54:41.247Z,12.92
2022-10-17T03:59:43.062Z,12.74
2022-10-17T04:04:49.921Z,12.75
2022-10-17T04:09:51.837Z,12.82
2022-10-17T04:14:55.639Z,12.87
2022-10-17T04:19:57.859Z,12.86
2022-10-17T04:24:59.692Z,12.64
2022-10-17T04:30:17.672Z,12.53
2022-10-17T04:35:20.652Z,12.63
2022-10-17T04:40:27.773Z,12.42
2022-10-17T04:45:30.362Z,12.17
2022-10-17T04:50:37.002Z,12.28
2022-10-17T04:55:58.833Z,12.43
2022-10-17T05:01:05.523Z,12.47
2022-10-17T05:06:10.261Z,12.52
2022-10-17T05:11:22.153Z,12.70
2022-10-17T05:16:24.980Z,13.44
2022-10-17T05:21:29.144Z,13.81
2022-10-17T05:26:31.308Z,14.11
2022-10-17T05:31:33.237Z,14.28
2022-10-17T05:36:34.980Z,14.41
2022-10-17T05:41:39.289Z,14.39
2022-10-17T05:46:41.236Z,13.85
2022-10-17T05:51:44.493Z,13.40
2022-10-17T05:56:52.143Z,13.24
2022-10-17T06:01:55.915Z,13.01
2022-10-17T06:06:57.760Z,12.77
2022-10-17T06:11:59.770Z,12.75
2022-10-17T06:17:01.680Z,12.77
2022-10-17T06:22:03.623Z,12.76
2022-10-17T06:27:10.927Z,12.59
2022-10-17T06:32:15.287Z,12.38
2022-10-17T06:37:20.388Z,12.38
2022-10-17T06:42:22.911Z,12.70
2022-10-17T06:47:42.049Z,12.82
2022-10-17T06:52:59.341Z,12.86
2022-10-17T06:58:22.381Z,12.89
2022-10-17T07:03:43.724Z,12.99
2022-10-17T07:08:47.068Z,13.13
2022-10-17T07:13:52.369Z,13.40
2022-10-17T07:18:55.756Z,13.62
2022-10-17T07:23:57.889Z,13.79
2022-10-17T07:29:01.708Z,14.00
2022-10-17T07:34:11.553Z,14.18
2022-10-17T07:39:13.522Z,14.37
2022-10-17T07:44:16.353Z,14.52
2022-10-17T07:49:22.148Z,14.68
2022-10-17T07:54:23.935Z,14.83
2022-10-17T07:59:25.625Z,14.98
2022-10-17T08:04:27.437Z,15.09
2022-10-17T08:09:29.781Z,15.20
2022-10-17T08:14:31.635Z,15.29
2022-10-17T08:19:33.341Z,15.41
2022-10-17T08:24:35.466Z,15.51
2022-10-17T08:29:38.161Z,15.64
2022-10-17T08:34:39.923Z,15.73
2022-10-17T08:39:42.633Z,15.81
2022-10-17T08:45:03.853Z,15.94
2022-10-17T08:50:10.498Z,16.06
2022-10-17T08:55:34.118Z,16.19
2022-10-17T09:00:51.210Z,16.36
2022-10-17T09:06:19.481Z,16.57
2022-10-17T09:11:52.290Z,16.74
2022-10-17T09:17:14.466Z,16.93
2022-10-17T09:22:21.311Z,17.12
2022-10-17T09:27:34.742Z,17.21
2022-10-17T09:32:37.633Z,17.29
2022-10-17T09:37:39.449Z,17.44
2022-10-17T09:42:41.262Z,17.55
2022-10-17T09:52:53.873Z,17.65
2022-10-17T09:58:01.714Z,17.72
2022-10-17T10:03:18.425Z,17.79
2022-10-17T10:08:21.298Z,17.80
2022-10-17T10:13:27.273Z,17.82
2022-10-17T10:18:32.535Z,17.93
2022-10-17T10:23:40.020Z,17.95
2022-10-17T10:29:05.313Z,18.02
2022-10-17T10:34:18.599Z,18.15
2022-10-17T10:39:30.840Z,18.20
2022-10-17T10:44:34.177Z,18.32
2022-10-17T10:49:38.155Z,18.50
2022-10-17T10:54:50.715Z,18.60
2022-10-17T11:00:02.001Z,18.79
2022-10-17T11:05:12.210Z,19.00
2022-10-17T11:10:32.038Z,19.15
2022-10-17T11:15:53.694Z,19.33
2022-10-17T11:21:02.764Z,19.58
2022-10-17T11:26:11.075Z,19.72
2022-10-17T11:31:15.760Z,19.99
2022-10-17T11:36:21.813Z,20.36
2022-10-17T11:41:41.554Z,20.50
2022-10-17T11:46:47.021Z,20.48
2022-10-17T11:52:02.329Z,20.52
2022-10-17T11:57:29.547Z,20.70
2022-10-17T12:03:03.045Z,21.06
2022-10-17T12:08:16.471Z,21.19
2022-10-17T12:13:41.152Z,21.38
2022-10-17T12:18:42.837Z,21.74
2022-10-17T12:23:53.170Z,21.75
2022-10-17T12:28:56.398Z,21.80
2022-10-17T12:34:00.923Z,21.79
2022-10-17T12:39:02.566Z,21.94
2022-10-17T12:44:13.014Z,22.08
2022-10-17T12:49:41.638Z,21.84
2022-10-17T12:55:14.229Z,21.71
2022-10-17T13:00:29.481Z,21.82
2022-10-17T13:05:35.988Z,22.07
2022-10-17T13:10:41.956Z,22.11
2022-10-17T13:15:50.285Z,22.24
2022-10-17T13:21:00.259Z,22.21
2022-10-17T13:26:26.219Z,22.15
2022-10-17T13:31:30.955Z,22.31
2022-10-17T13:36:35.200Z,22.35
2022-10-17T13:41:38.253Z,22.56
2022-10-17T13:46:41.853Z,22.48
2022-10-17T13:51:50.138Z,22.37
2022-10-17T13:56:57.443Z,22.27
2022-10-17T14:02:01.598Z,22.37
2022-10-17T14:07:03.697Z,22.41
2022-10-17T14:12:12.779Z,22.38
2022-10-17T14:17:21.834Z,22.23
2022-10-17T14:22:23.502Z,22.08
2022-10-17T14:27:55.264Z,22.04
2022-10-17T14:32:59.962Z,22.08
2022-10-17T14:38:05.737Z,22.01
2022-10-17T14:43:07.430Z,21.89
2022-10-17T14:48:14.442Z,21.81
2022-10-17T14:53:16.218Z,21.84
2022-10-17T14:58:26.087Z,21.99
2022-10-17T15:03:28.278Z,21.91
2022-10-17T15:08:30.212Z,21.60
2022-10-17T15:13:36.776Z,21.49
2022-10-17T15:18:41.832Z,21.38
2022-10-17T15:23:43.885Z,21.28
2022-10-17T15:28:47.460Z,21.26
2022-10-17T15:33:49.808Z,21.22
2022-10-17T15:38:53.677Z,20.94
2022-10-17T15:43:55.701Z,20.84
2022-10-17T15:49:01.585Z,20.46
2022-10-17T15:54:04.895Z,19.97
2022-10-17T15:59:13.150Z,19.76
2022-10-17T16:04:15.851Z,19.60
2022-10-17T16:09:17.632Z,19.08
2022-10-17T16:14:19.347Z,18.85
2022-10-17T16:19:21.706Z,18.65
2022-10-17T16:24:24.898Z,18.35
2022-10-17T16:29:26.581Z,18.04
2022-10-17T16:34:30.614Z,17.96
2022-10-17T16:39:32.311Z,17.77
2022-10-17T16:44:34.050Z,17.57
2022-10-17T16:49:36.887Z,17.53
2022-10-17T16:54:40.087Z,17.36
2022-10-17T16:59:41.879Z,17.25
2022-10-17T17:04:43.546Z,17.22
2022-10-17T17:09:45.199Z,17.23
2022-10-17T17:14:47.013Z,17.21
2022-10-17T17:19:48.740Z,17.20
2022-10-17T17:24:50.629Z,17.10
2022-10-17T17:29:52.571Z,17.09
2022-10-17T17:34:54.433Z,17.06
2022-10-17T17:39:56.219Z,17.01
2022-10-17T17:44:57.846Z,16.73
2022-10-17T17:49:59.688Z,16.38
2022-10-17T17:55:01.375Z,16.29
2022-10-17T18:00:04.829Z,16.32
2022-10-17T18:05:07.391Z,16.44
2022-10-17T18:10:09.741Z,16.44
2022-10-17T18:15:11.846Z,16.33
2022-10-17T18:20:13.675Z,16.26
2022-10-17T18:25:15.426Z,16.25
2022-10-17T18:30:19.240Z,16.25
2022-10-17T18:35:23.162Z,16.21
2022-10-17T18:40:24.859Z,16.00
2022-10-17T18:45:26.810Z,15.91
2022-10-17T18:50:28.546Z,15.90
2022-10-17T18:55:31.519Z,15.95
2022-10-17T19:00:33.399Z,15.98
2022-10-17T19:05:38.285Z,16.01
2022-10-17T19:10:41.573Z,16.03
2022-10-17T19:15:43.238Z,15.93
2022-10-17T19:20:46.035Z,15.81
2022-10-17T19:25:47.642Z,15.77
2022-10-17T19:30:49.410Z,15.67
2022-10-17T19:36:02.152Z,15.52
2022-10-17T19:41:09.140Z,15.35
2022-10-17T19:46:14.399Z,15.01
2022-10-17T19:51:17.939Z,15.13
2022-10-17T19:56:21.624Z,15.32
2022-10-17T20:01:25.825Z,15.28
2022-10-17T20:06:27.887Z,15.28
2022-10-17T20:11:30.267Z,15.37
2022-10-17T20:16:34.600Z,15.32
2022-10-17T20:21:37.316Z,15.07
2022-10-17T20:26:39.987Z,15.09
2022-10-17T20:31:44.441Z,15.16
2022-10-17T20:36:46.781Z,15.15
2022-10-17T20:41:48.796Z,15.05
2022-10-17T20:47:01.033Z,14.90
2022-10-17T20:52:04.002Z,14.88
2022-10-17T20:57:05.937Z,14.94
2022-10-17T21:02:11.674Z,14.87
2022-10-17T21:07:13.676Z,14.73
2022-10-17T21:12:25.791Z,14.62
2022-10-17T21:17:33.241Z,14.61
2022-10-17T21:22:35.158Z,14.66
2022-10-17T21:27:36.892Z,14.75
2022-10-17T21:32:51.151Z,14.81
2022-10-17T21:37:53.626Z,14.58
2022-10-17T21:42:55.318Z,14.59
2022-10-17T21:48:13.279Z,14.54
2022-10-17T21:53:15.120Z,14.54
2022-10-17T21:58:16.910Z,14.48
2022-10-17T22:03:18.724Z,14.36
2022-10-17T22:08:20.397Z,14.30
2022-10-17T22:13:22.183Z,14.29
2022-10-17T22:18:23.925Z,14.21
2022-10-17T22:23:25.955Z,14.18
2022-10-17T22:28:28.535Z,14.16
2022-10-17T22:33:35.183Z,14.04
2022-10-17T22:38:37.165Z,14.09
2022-10-17T22:43:38.987Z,14.15
2022-10-17T22:48:40.961Z,14.09
2022-10-17T22:53:42.707Z,14.14
2022-10-17T22:58:44.710Z,14.21
2022-10-17T23:03:46.470Z,14.16
2022-10-17T23:08:48.990Z,14.06
2022-10-17T23:13:50.663Z,14.05
2022-10-17T23:18:52.323Z,14.04
2022-10-17T23:23:53.999Z,14.02
2022-10-17T23:28:55.780Z,13.98
2022-10-17T23:33:58.392Z,13.94
2022-10-17T23:39:00.896Z,13.94
2022-10-17T23:44:03.172Z,13.94
2022-10-17T23:49:06.120Z,13.92
2022-10-17T23:54:07.834Z,13.67
2022-10-17T23:59:09.631Z,13.60
